Terminal Aerodrome Forecast
Issued by NWS Austin/San Antonio, TX

Home | Current Version | Previous Version | Text Only | Print | Product List | Glossary On
Versions: 1 2 3 4 5 6 7 8 9 10 11 12 13 14 15 16 17 18
672
FTUS44 KEWX 262338
TAFAUS
TAF
KAUS 262338Z 2700/2806 18011KT P6SM SCT050
     FM270400 16011KT P6SM OVC012
     FM270900 17009KT P6SM OVC009
     FM271200 19011KT P6SM OVC012
     FM271500 19012G22KT P6SM BKN018
     FM272000 19015KT P6SM SCT040 SCT250=

USA.gov is the U.S. government's official web portal to all federal, state and local government web resources and services.